Sule Skerry, United Kingdom
Current Conditions -  °F | °C
As of 12:50 AM on Tuesday 27 Jan 2015 (Local Time) from EGPA Reporting Station
Drizzle Drizzle  
Wind Chill: 35°   Ceiling: Unl
Heat Index: 43°   Visibility: 6mi
Dew Point: 39°   Wind: 17mph
Humidity: 87%   Direction: 280°W
Pressure: 30.03"   Gusts: NA
Location:  59.08°N, 4.4°W
Report Text: EGPA 270050Z AUTO 28015KT 9999 -DZ FEW026/// 06/04 Q1017
Loading
Personal Weather Stations






























Interactive Weather Map New forecast layout! Learn more

10-Day Weather Forecast

Advertisements
Track Severe Weather on mobile